createdAt,value
2023-02-23T00:00:30.120Z,28.30
2023-02-23T00:03:01.532Z,28.33
2023-02-23T00:05:39.301Z,29.70
2023-02-23T00:08:07.767Z,29.47
2023-02-23T00:10:36.123Z,31.47
2023-02-23T00:13:05.135Z,30.43
2023-02-23T00:15:33.864Z,28.87
2023-02-23T00:18:04.701Z,28.63
2023-02-23T00:20:35.731Z,28.77
2023-02-23T00:23:04.834Z,28.23
2023-02-23T00:25:33.213Z,30.43
2023-02-23T00:28:01.699Z,29.67
2023-02-23T00:30:30.732Z,31.60
2023-02-23T00:32:59.326Z,30.63
2023-02-23T00:35:27.706Z,34.72
2023-02-23T00:37:57.640Z,29.73
2023-02-23T00:40:26.654Z,29.30
2023-02-23T00:42:55.463Z,30.20
2023-02-23T00:45:23.856Z,32.53
2023-02-23T00:47:52.425Z,33.77
2023-02-23T00:50:20.994Z,33.07
2023-02-23T00:52:49.497Z,31.53
2023-02-23T00:55:19.496Z,29.93
2023-02-23T00:57:47.839Z,27.23
2023-02-23T01:00:20.331Z,27.57
2023-02-23T01:02:50.504Z,25.57
2023-02-23T01:05:22.274Z,25.63
2023-02-23T01:07:51.203Z,24.33
2023-02-23T01:10:21.439Z,23.80
2023-02-23T01:12:51.056Z,24.70
2023-02-23T01:15:21.051Z,23.80
2023-02-23T01:17:49.654Z,23.80
2023-02-23T01:20:19.536Z,22.87
2023-02-23T01:22:50.086Z,24.90
2023-02-23T01:25:20.818Z,23.53
2023-02-23T01:27:49.279Z,23.07
2023-02-23T01:30:17.908Z,25.17
2023-02-23T01:32:46.369Z,22.37
2023-02-23T01:35:15.207Z,23.27
2023-02-23T01:37:44.822Z,24.17
2023-02-23T01:40:28.801Z,24.20
2023-02-23T01:43:01.346Z,23.83
2023-02-23T01:45:35.943Z,23.60
2023-02-23T01:48:08.017Z,24.03
2023-02-23T01:50:42.992Z,21.30
2023-02-23T01:53:12.187Z,24.17
2023-02-23T01:55:43.115Z,21.00
2023-02-23T01:58:17.379Z,22.87
2023-02-23T02:00:51.144Z,23.27
2023-02-23T02:03:26.832Z,22.87
2023-02-23T02:05:57.704Z,21.53
2023-02-23T02:08:27.284Z,19.37
2023-02-23T02:10:57.742Z,21.00
2023-02-23T02:13:30.858Z,19.70
2023-02-23T02:16:29.450Z,19.60
2023-02-23T02:19:24.462Z,17.67
2023-02-23T02:22:18.784Z,17.10
2023-02-23T02:25:19.750Z,16.67
2023-02-23T02:28:14.743Z,15.73
2023-02-23T02:31:01.013Z,16.77
2023-02-23T02:33:53.159Z,15.83
2023-02-23T02:36:56.131Z,17.60
2023-02-23T02:39:37.023Z,17.30
2023-02-23T02:42:19.164Z,16.93
2023-02-23T02:44:57.193Z,16.00
2023-02-23T02:47:31.616Z,18.30
2023-02-23T02:50:08.047Z,15.90
2023-02-23T02:52:41.542Z,16.93
2023-02-23T02:55:16.972Z,17.27
2023-02-23T02:57:48.064Z,17.27
2023-02-23T03:00:38.866Z,17.17
2023-02-23T03:03:24.665Z,18.03
2023-02-23T03:06:13.601Z,17.63
2023-02-23T03:09:07.453Z,18.33
2023-02-23T03:12:07.240Z,17.87
2023-02-23T03:15:04.826Z,19.20
2023-02-23T03:18:00.627Z,17.77
2023-02-23T03:20:56.659Z,17.70
2023-02-23T03:23:49.072Z,18.87
2023-02-23T03:26:41.592Z,25.37
2023-02-23T03:29:37.047Z,23.03
2023-02-23T03:32:30.253Z,23.93
2023-02-23T03:35:22.759Z,22.57
2023-02-23T03:38:15.749Z,22.63
2023-02-23T03:41:04.255Z,21.67
2023-02-23T03:43:53.824Z,20.77
2023-02-23T03:46:44.445Z,18.33
2023-02-23T03:49:32.823Z,17.40
2023-02-23T03:52:24.274Z,18.47
2023-02-23T03:55:15.177Z,17.53
2023-02-23T03:58:04.543Z,17.10
2023-02-23T04:00:53.461Z,16.57
2023-02-23T04:03:42.197Z,15.97
2023-02-23T04:06:32.764Z,15.43
2023-02-23T04:09:23.936Z,16.13
2023-02-23T04:12:15.734Z,17.50
2023-02-23T04:14:49.568Z,16.73
2023-02-23T04:17:23.524Z,16.63
2023-02-23T04:19:54.522Z,16.43
2023-02-23T04:22:24.158Z,17.03
2023-02-23T04:24:52.547Z,17.17
2023-02-23T04:27:21.273Z,17.30
2023-02-23T04:29:49.714Z,16.53
2023-02-23T04:32:21.086Z,17.00
2023-02-23T04:34:49.786Z,18.10
2023-02-23T04:37:19.569Z,17.27
2023-02-23T04:39:50.337Z,16.27
2023-02-23T04:42:19.403Z,17.43
2023-02-23T04:44:47.941Z,17.23
2023-02-23T04:47:17.056Z,16.73
2023-02-23T04:49:45.936Z,17.33
2023-02-23T04:52:14.458Z,16.53
2023-02-23T04:54:44.292Z,17.67
2023-02-23T04:57:12.754Z,17.57
2023-02-23T04:59:41.072Z,16.93
2023-02-23T05:02:09.602Z,15.13
2023-02-23T05:04:38.126Z,16.80
2023-02-23T05:07:07.099Z,15.67
2023-02-23T05:09:35.687Z,15.40
2023-02-23T05:12:05.978Z,15.53
2023-02-23T05:14:34.367Z,13.47
2023-02-23T05:17:02.918Z,14.03
2023-02-23T05:19:31.444Z,15.30
2023-02-23T05:21:59.742Z,14.60
2023-02-23T05:24:28.176Z,12.40
2023-02-23T05:26:56.473Z,13.53
2023-02-23T05:29:26.360Z,12.70
2023-02-23T05:31:54.899Z,13.43
2023-02-23T05:34:23.350Z,13.27
2023-02-23T05:36:51.982Z,13.33
2023-02-23T05:39:20.383Z,12.23
2023-02-23T05:41:48.802Z,13.80
2023-02-23T05:44:17.508Z,12.70
2023-02-23T05:46:48.633Z,13.33
2023-02-23T05:49:17.167Z,13.60
2023-02-23T05:51:45.559Z,12.57
2023-02-23T05:54:15.149Z,12.77
2023-02-23T05:56:43.939Z,12.70
2023-02-23T05:59:13.377Z,12.80
2023-02-23T06:01:41.851Z,12.33
2023-02-23T06:04:11.590Z,12.50
2023-02-23T06:06:40.185Z,13.63
2023-02-23T06:09:08.694Z,13.37
2023-02-23T06:11:37.091Z,12.93
2023-02-23T06:14:05.500Z,11.90
2023-02-23T06:16:33.997Z,13.20
2023-02-23T06:19:02.394Z,12.27
2023-02-23T06:21:32.272Z,12.30
2023-02-23T06:24:01.153Z,11.90
2023-02-23T06:26:29.884Z,13.27
2023-02-23T06:28:58.667Z,12.40
2023-02-23T06:31:27.128Z,12.07
2023-02-23T06:33:55.530Z,12.73
2023-02-23T06:36:24.639Z,12.50
2023-02-23T06:38:58.166Z,11.43
2023-02-23T06:41:27.236Z,11.60
2023-02-23T06:43:55.688Z,10.90
2023-02-23T06:46:24.833Z,10.80
2023-02-23T06:48:56.685Z,10.97
2023-02-23T06:51:25.425Z,10.80
2023-02-23T06:53:55.261Z,10.17
2023-02-23T06:56:24.178Z,10.73
2023-02-23T06:58:52.636Z,10.53
2023-02-23T07:01:21.457Z,10.93
2023-02-23T07:03:50.114Z,10.93
2023-02-23T07:06:18.512Z,10.13
2023-02-23T07:08:46.894Z,10.13
2023-02-23T07:11:18.937Z,10.00
2023-02-23T07:13:48.514Z,11.70
2023-02-23T07:16:17.014Z,10.63
2023-02-23T07:18:45.531Z,10.83
2023-02-23T07:21:13.938Z,10.20
2023-02-23T07:23:42.379Z,11.43
2023-02-23T07:26:12.408Z,10.37
2023-02-23T07:28:42.388Z,13.10
2023-02-23T07:31:10.825Z,13.60
2023-02-23T07:33:39.170Z,15.00
2023-02-23T07:36:07.958Z,14.87
2023-02-23T07:38:36.750Z,13.97
2023-02-23T07:41:05.257Z,14.37
2023-02-23T07:43:33.658Z,14.83
2023-02-23T07:46:04.494Z,14.27
2023-02-23T07:48:33.401Z,14.40
2023-02-23T07:51:01.956Z,14.20
2023-02-23T07:53:30.294Z,14.97
2023-02-23T07:55:59.154Z,19.57
2023-02-23T07:58:27.540Z,20.67
2023-02-23T08:00:56.069Z,21.70
2023-02-23T08:03:26.448Z,21.90
2023-02-23T08:05:54.996Z,20.13
2023-02-23T08:08:23.560Z,19.13
2023-02-23T08:10:52.293Z,19.63
2023-02-23T08:13:20.729Z,19.47
2023-02-23T08:15:49.068Z,20.00
2023-02-23T08:18:17.917Z,18.93
2023-02-23T08:20:47.933Z,18.83
2023-02-23T08:23:17.094Z,19.33
2023-02-23T08:25:45.734Z,19.90
2023-02-23T08:28:14.128Z,19.60
2023-02-23T08:30:43.032Z,20.20
2023-02-23T08:33:11.433Z,19.77
2023-02-23T08:35:39.818Z,20.30
2023-02-23T08:38:09.556Z,21.87
2023-02-23T08:40:38.011Z,18.63
2023-02-23T08:43:06.481Z,18.50
2023-02-23T08:45:34.958Z,19.93
2023-02-23T08:48:03.360Z,18.80
2023-02-23T08:50:31.954Z,19.83
2023-02-23T08:53:00.282Z,19.63
2023-02-23T08:55:30.103Z,20.47
2023-02-23T08:57:58.718Z,20.00
2023-02-23T09:00:27.388Z,19.73
2023-02-23T09:02:55.901Z,20.87
2023-02-23T09:05:24.308Z,20.23
2023-02-23T09:07:52.760Z,21.80
2023-02-23T09:10:25.018Z,20.53
2023-02-23T09:12:55.214Z,21.53
2023-02-23T09:15:23.886Z,24.90
2023-02-23T09:17:52.518Z,28.10
2023-02-23T09:20:26.842Z,27.43
2023-02-23T09:22:55.421Z,26.47
2023-02-23T09:25:24.304Z,26.27
2023-02-23T09:27:56.510Z,26.33
2023-02-23T09:30:24.965Z,26.20
2023-02-23T09:32:53.746Z,26.53
2023-02-23T09:35:24.438Z,27.70
2023-02-23T09:37:56.324Z,26.70
2023-02-23T09:40:27.831Z,27.27
2023-02-23T09:43:04.473Z,27.57
2023-02-23T09:45:40.453Z,27.47
2023-02-23T09:48:16.818Z,29.80
2023-02-23T09:50:49.522Z,34.87
2023-02-23T09:53:35.926Z,34.07
2023-02-23T09:56:10.860Z,32.50
2023-02-23T09:58:41.369Z,32.33
2023-02-23T10:01:27.701Z,33.07
2023-02-23T10:04:01.158Z,31.90
2023-02-23T10:06:30.394Z,32.83
2023-02-23T10:09:15.782Z,31.20
2023-02-23T10:11:51.786Z,31.10
2023-02-23T10:14:37.692Z,30.73
2023-02-23T10:17:16.666Z,32.70
2023-02-23T10:19:50.430Z,32.90
2023-02-23T10:22:20.897Z,32.50
2023-02-23T10:24:57.271Z,31.13
2023-02-23T10:27:31.804Z,29.80
2023-02-23T10:30:04.953Z,26.13
2023-02-23T10:32:41.982Z,23.73
2023-02-23T10:35:14.024Z,23.37
2023-02-23T10:37:42.651Z,21.93
2023-02-23T10:40:16.805Z,22.83
2023-02-23T10:42:45.898Z,21.27
2023-02-23T10:45:19.805Z,21.33
2023-02-23T10:47:49.624Z,20.97
2023-02-23T10:50:18.468Z,19.83
2023-02-23T10:52:49.242Z,20.50
2023-02-23T10:55:27.412Z,21.10
2023-02-23T10:58:17.139Z,19.63
2023-02-23T11:00:55.961Z,20.43
2023-02-23T11:03:29.583Z,19.13
2023-02-23T11:05:58.045Z,20.63
2023-02-23T11:08:30.723Z,18.73
2023-02-23T11:11:02.869Z,19.13
2023-02-23T11:13:36.610Z,20.03
2023-02-23T11:16:10.523Z,19.13
2023-02-23T11:18:40.703Z,20.30
2023-02-23T11:21:22.870Z,19.00
2023-02-23T11:23:53.518Z,19.87
2023-02-23T11:26:29.793Z,18.60
2023-02-23T11:29:00.912Z,19.47
2023-02-23T11:31:34.845Z,18.77
2023-02-23T11:34:05.766Z,19.33
2023-02-23T11:36:35.823Z,18.83
2023-02-23T11:39:19.497Z,19.00
2023-02-23T11:41:47.932Z,18.33
2023-02-23T11:44:22.797Z,18.33
2023-02-23T11:46:53.409Z,19.43
2023-02-23T11:49:24.956Z,19.80
2023-02-23T11:51:54.870Z,19.83
2023-02-23T11:54:28.603Z,20.20
2023-02-23T11:56:58.217Z,19.77
2023-02-23T11:59:31.394Z,20.17
2023-02-23T12:02:07.608Z,20.53
2023-02-23T12:04:39.120Z,20.60
2023-02-23T12:07:29.770Z,20.00
2023-02-23T12:10:06.615Z,19.53
2023-02-23T12:12:46.053Z,20.23
2023-02-23T12:15:25.134Z,19.07
2023-02-23T12:17:59.146Z,19.60
2023-02-23T12:20:31.818Z,17.93
2023-02-23T12:23:03.892Z,17.27
2023-02-23T12:25:40.575Z,17.47
2023-02-23T12:28:19.233Z,17.07
2023-02-23T12:30:52.237Z,17.37
2023-02-23T12:33:30.251Z,17.67
2023-02-23T12:36:01.935Z,16.20
2023-02-23T12:38:40.980Z,17.77
2023-02-23T12:41:13.804Z,18.47
2023-02-23T12:43:49.559Z,17.43
2023-02-23T12:46:23.369Z,17.27
2023-02-23T12:49:05.414Z,15.43
2023-02-23T12:51:37.301Z,16.97
2023-02-23T12:54:06.117Z,14.93
2023-02-23T12:56:51.911Z,14.10
2023-02-23T12:59:44.974Z,14.60
2023-02-23T13:02:21.776Z,11.87
2023-02-23T13:05:15.566Z,9.80
2023-02-23T13:07:53.998Z,8.00
2023-02-23T13:10:33.325Z,7.00
2023-02-23T13:13:18.786Z,6.40
2023-02-23T13:15:55.727Z,6.57
2023-02-23T13:18:28.467Z,7.30
2023-02-23T13:21:07.033Z,7.77
2023-02-23T13:23:41.633Z,6.60
2023-02-23T13:26:20.411Z,6.40
2023-02-23T13:28:57.327Z,6.77
2023-02-23T13:31:28.408Z,6.20
2023-02-23T13:34:00.183Z,6.70
2023-02-23T13:36:33.496Z,6.27
2023-02-23T13:39:32.612Z,6.30
2023-02-23T13:42:15.033Z,6.80
2023-02-23T13:44:50.606Z,5.80
2023-02-23T13:47:34.214Z,6.30
2023-02-23T13:50:08.870Z,6.00
2023-02-23T13:52:43.374Z,6.03
2023-02-23T13:55:48.531Z,6.20
2023-02-23T13:58:20.296Z,5.70
2023-02-23T14:00:56.213Z,5.17
2023-02-23T14:03:28.558Z,4.43
2023-02-23T14:06:02.198Z,5.07
2023-02-23T14:08:37.763Z,5.33
2023-02-23T14:11:07.340Z,4.23
2023-02-23T14:13:43.029Z,4.50
2023-02-23T14:16:17.444Z,4.70
2023-02-23T14:18:56.716Z,5.13
2023-02-23T14:21:33.512Z,5.70
2023-02-23T14:24:17.769Z,4.30
2023-02-23T14:27:08.537Z,4.87
2023-02-23T14:29:42.039Z,4.00
2023-02-23T14:32:31.873Z,3.93
2023-02-23T14:35:01.762Z,3.70
2023-02-23T14:37:36.443Z,3.93
2023-02-23T14:40:15.080Z,3.60
2023-02-23T14:42:48.512Z,3.90
2023-02-23T14:45:27.253Z,4.87
2023-02-23T14:48:00.947Z,3.33
2023-02-23T14:50:32.308Z,4.03
2023-02-23T14:53:02.396Z,3.43
2023-02-23T14:55:35.514Z,3.03
2023-02-23T14:58:05.132Z,2.97
2023-02-23T15:00:42.716Z,2.97
2023-02-23T15:03:13.869Z,2.80
2023-02-23T15:05:45.036Z,3.13
2023-02-23T15:08:17.551Z,2.40
2023-02-23T15:10:50.399Z,2.50
2023-02-23T15:13:30.758Z,2.90
2023-02-23T15:16:02.596Z,3.00
2023-02-23T15:18:35.247Z,2.63
2023-02-23T15:21:08.602Z,2.93
2023-02-23T15:23:38.477Z,3.40
2023-02-23T15:26:24.490Z,2.73
2023-02-23T15:28:53.557Z,3.00
2023-02-23T15:31:22.586Z,3.40
2023-02-23T15:33:52.022Z,3.90
2023-02-23T15:36:29.325Z,3.67
2023-02-23T15:39:02.441Z,3.50
2023-02-23T15:41:35.042Z,3.93
2023-02-23T15:44:07.958Z,3.77
2023-02-23T15:46:38.053Z,3.63
2023-02-23T15:49:07.315Z,4.00
2023-02-23T15:51:38.938Z,3.67
2023-02-23T15:54:21.721Z,4.00
2023-02-23T15:56:54.822Z,3.80
2023-02-23T15:59:28.926Z,4.43
2023-02-23T16:02:00.422Z,3.90
2023-02-23T16:04:32.588Z,3.83
2023-02-23T16:07:19.194Z,3.80
2023-02-23T16:09:53.120Z,4.07
2023-02-23T16:12:26.309Z,4.63
2023-02-23T16:14:58.404Z,4.20
2023-02-23T16:17:30.081Z,4.73
2023-02-23T16:20:11.410Z,4.07
2023-02-23T16:22:41.132Z,4.53
2023-02-23T16:25:14.486Z,4.27
2023-02-23T16:27:45.714Z,4.63
2023-02-23T16:30:23.462Z,4.20
2023-02-23T16:33:06.484Z,4.33
2023-02-23T16:35:37.935Z,4.60
2023-02-23T16:38:14.355Z,5.10
2023-02-23T16:40:43.353Z,4.27
2023-02-23T16:43:13.186Z,4.47
2023-02-23T16:45:43.825Z,4.67
2023-02-23T16:48:15.207Z,4.70
2023-02-23T16:50:45.775Z,4.83
2023-02-23T16:53:14.516Z,4.80
2023-02-23T16:55:48.096Z,5.57
2023-02-23T16:58:20.883Z,4.50
2023-02-23T17:00:49.436Z,5.03
2023-02-23T17:03:20.592Z,4.90
2023-02-23T17:05:49.563Z,5.60
2023-02-23T17:08:19.220Z,4.00
2023-02-23T17:10:49.956Z,5.17
2023-02-23T17:13:22.049Z,4.30
2023-02-23T17:15:53.875Z,5.53
2023-02-23T17:20:59.552Z,5.23
2023-02-23T17:23:38.454Z,4.63
2023-02-23T17:26:08.391Z,5.20
2023-02-23T17:28:38.541Z,5.27
2023-02-23T17:31:09.330Z,11.87
2023-02-23T17:33:40.197Z,26.77
2023-02-23T17:36:11.212Z,29.70
2023-02-23T17:38:44.406Z,6.60
2023-02-23T17:41:15.652Z,6.53
2023-02-23T17:43:45.863Z,7.40
2023-02-23T17:46:14.644Z,31.10
2023-02-23T17:48:44.874Z,9.50
2023-02-23T17:51:16.244Z,6.30
2023-02-23T17:53:45.365Z,6.87
2023-02-23T17:56:13.821Z,6.90
2023-02-23T17:58:42.174Z,6.30
2023-02-23T18:01:11.886Z,6.70
2023-02-23T18:03:40.445Z,6.10
2023-02-23T18:06:10.559Z,6.20
2023-02-23T18:08:39.981Z,6.30
2023-02-23T18:11:08.393Z,6.57
2023-02-23T18:13:37.056Z,6.30
2023-02-23T18:16:09.578Z,6.87
2023-02-23T18:18:41.345Z,7.20
2023-02-23T18:21:13.003Z,7.37
2023-02-23T18:23:41.602Z,7.10
2023-02-23T18:26:12.416Z,7.03
2023-02-23T18:28:44.464Z,7.40
2023-02-23T18:31:15.689Z,7.50
2023-02-23T18:33:46.442Z,6.93
2023-02-23T18:36:20.293Z,7.60
2023-02-23T18:38:48.780Z,21.60
2023-02-23T18:41:17.317Z,21.03
2023-02-23T18:43:46.237Z,12.30
2023-02-23T18:46:15.631Z,10.33
2023-02-23T18:48:45.656Z,8.10
2023-02-23T18:51:14.784Z,9.23
2023-02-23T18:53:44.731Z,8.60
2023-02-23T18:56:14.980Z,11.30
2023-02-23T18:58:45.755Z,8.63
2023-02-23T19:01:18.272Z,9.83
2023-02-23T19:03:48.339Z,7.90
2023-02-23T19:06:19.372Z,8.93
2023-02-23T19:08:54.282Z,8.50
2023-02-23T19:11:27.555Z,8.00
2023-02-23T19:13:57.537Z,7.20
2023-02-23T19:16:28.119Z,6.30
2023-02-23T19:18:58.104Z,6.93
2023-02-23T19:21:26.687Z,6.00
2023-02-23T19:23:57.831Z,5.90
2023-02-23T19:26:27.525Z,4.97
2023-02-23T19:28:56.318Z,5.63
2023-02-23T19:31:26.283Z,5.27
2023-02-23T19:33:56.821Z,5.47
2023-02-23T19:36:30.823Z,4.90
2023-02-23T19:39:10.905Z,5.23
2023-02-23T19:41:41.654Z,4.43
2023-02-23T19:44:10.535Z,5.30
2023-02-23T19:46:40.056Z,5.03
2023-02-23T19:49:08.604Z,5.70
2023-02-23T19:51:38.640Z,8.50
2023-02-23T19:54:07.684Z,8.90
2023-02-23T19:56:36.559Z,9.13
2023-02-23T19:59:06.454Z,7.97
2023-02-23T20:01:34.917Z,12.37
2023-02-23T20:04:06.682Z,11.03
2023-02-23T20:06:44.770Z,19.30
2023-02-23T20:09:13.577Z,12.80
2023-02-23T20:11:42.781Z,19.77
2023-02-23T20:14:12.606Z,17.00
2023-02-23T20:16:41.448Z,9.90
2023-02-23T20:19:11.831Z,9.70
2023-02-23T20:21:42.264Z,6.63
2023-02-23T20:24:12.917Z,7.93
2023-02-23T20:26:41.309Z,6.97
2023-02-23T20:29:13.306Z,9.17
2023-02-23T20:31:50.759Z,6.83
2023-02-23T20:34:24.695Z,7.13
2023-02-23T20:36:58.130Z,7.40
2023-02-23T20:39:27.234Z,7.67
2023-02-23T20:42:05.344Z,6.20
2023-02-23T20:44:43.953Z,6.63
2023-02-23T20:47:27.630Z,6.83
2023-02-23T20:50:05.202Z,7.47
2023-02-23T20:52:35.389Z,7.17
2023-02-23T20:55:05.339Z,7.17
2023-02-23T20:57:34.612Z,6.83
2023-02-23T21:00:22.848Z,7.40
2023-02-23T21:02:55.785Z,6.37
2023-02-23T21:05:26.308Z,6.97
2023-02-23T21:08:00.101Z,7.07
2023-02-23T21:10:31.504Z,9.20
2023-02-23T21:13:00.811Z,7.13
2023-02-23T21:15:30.183Z,7.00
2023-02-23T21:17:59.786Z,7.00
2023-02-23T21:20:28.786Z,6.77
2023-02-23T21:22:58.726Z,7.77
2023-02-23T21:25:28.626Z,7.83
2023-02-23T21:27:57.124Z,6.63
2023-02-23T21:30:28.771Z,8.03
2023-02-23T21:33:00.367Z,7.83
2023-02-23T21:35:28.977Z,8.40
2023-02-23T21:37:59.423Z,7.70
2023-02-23T21:40:27.979Z,8.17
2023-02-23T21:42:56.374Z,7.33
2023-02-23T21:45:24.794Z,7.63
2023-02-23T21:47:53.272Z,7.67
2023-02-23T21:50:21.718Z,7.97
2023-02-23T21:52:53.271Z,7.43
2023-02-23T21:55:23.261Z,7.20
2023-02-23T21:57:53.023Z,7.57
2023-02-23T22:00:23.100Z,7.80
2023-02-23T22:02:52.064Z,7.57
2023-02-23T22:05:21.077Z,7.57
2023-02-23T22:07:51.522Z,7.10
2023-02-23T22:10:23.168Z,7.47
2023-02-23T22:12:57.070Z,7.00
2023-02-23T22:15:28.384Z,7.73
2023-02-23T22:17:57.207Z,6.87
2023-02-23T22:20:26.355Z,7.07
2023-02-23T22:22:54.933Z,7.27
2023-02-23T22:25:26.232Z,8.23
2023-02-23T22:27:54.715Z,8.27
2023-02-23T22:30:23.536Z,7.17
2023-02-23T22:32:52.297Z,7.93
2023-02-23T22:35:20.877Z,7.57
2023-02-23T22:37:49.323Z,7.67
2023-02-23T22:40:17.979Z,7.73
2023-02-23T22:42:49.624Z,7.90
2023-02-23T22:45:19.004Z,8.83
2023-02-23T22:47:47.500Z,8.50
2023-02-23T22:50:18.274Z,9.80
2023-02-23T22:52:47.472Z,9.60
2023-02-23T22:55:15.998Z,9.77
2023-02-23T22:57:44.386Z,8.83
2023-02-23T23:00:17.699Z,11.20
2023-02-23T23:02:46.197Z,10.57
2023-02-23T23:05:15.741Z,11.90
2023-02-23T23:07:46.736Z,10.00
2023-02-23T23:10:16.198Z,10.43
2023-02-23T23:12:45.103Z,9.10
2023-02-23T23:15:17.496Z,9.23
2023-02-23T23:17:49.334Z,9.57
2023-02-23T23:20:25.858Z,9.40
2023-02-23T23:22:54.972Z,9.30
2023-02-23T23:25:23.978Z,8.80
2023-02-23T23:27:55.691Z,9.63
2023-02-23T23:30:29.343Z,8.73
2023-02-23T23:32:57.965Z,8.80
2023-02-23T23:35:26.910Z,8.33
2023-02-23T23:37:55.401Z,9.70
2023-02-23T23:40:24.909Z,8.30
2023-02-23T23:42:55.524Z,8.60
2023-02-23T23:45:25.865Z,8.57
2023-02-23T23:47:54.403Z,8.00
2023-02-23T23:50:27.110Z,8.73
2023-02-23T23:52:57.187Z,8.80
2023-02-23T23:55:31.553Z,8.40
2023-02-23T23:58:00.812Z,7.97
